Time;durP1;ratioP1;P1;durP2;ratioP2;P2;SDS_P1;SDS_P2;PMS_P1;PMS_P2;Temp;Humidity;BMP_temperature;BMP_pressure;BME280_temperature;BME280_humidity;BME280_pressure;Samples;Min_cycle;Max_cycle;Signal;HPM_P1;HPM_P2
2024/02/01 00:54:43;;;;;;;27.08;3.60;;;;;;;3.42;100.00;101967.69;4806874;29;20050;-96
2024/02/01 01:11:25;;;;;;;28.50;3.58;;;;;;;3.18;100.00;101998.22;4814676;29;20038;-96
2024/02/01 01:48:11;;;;;;;;;;;;;;;2.55;100.00;101991.75;4894899;29;20185;-96
2024/02/01 01:51:28;;;;;;;11.90;4.53;;;;;;;2.61;100.00;101991.53;4885280;29;19950;-96
2024/02/01 01:54:51;;;;;;;13.57;3.75;;;;;;;2.67;100.00;101986.09;4882143;29;20044;-96
2024/02/01 01:57:42;;;;;;;20.05;4.00;;;;;;;2.65;100.00;101980.06;4874701;29;20065;-96
2024/02/01 02:01:05;;;;;;;18.67;3.60;;;;;;;2.68;100.00;101990.41;4909998;28;20043;-96
2024/02/01 02:08:28;;;;;;;;;;;;;;;;;;;;;
2024/02/01 02:16:20;;;;;;;;;;;;;;;;;;;;;
2024/02/01 02:19:16;;;;;;;14.23;5.00;;;;;;;2.68;100.00;102002.59;4961915;28;20054;-96
2024/02/01 02:22:13;;;;;;;16.88;3.78;;;;;;;2.76;100.00;101999.72;4932402;28;20042;-96
2024/02/01 02:25:39;;;;;;;20.33;4.45;;;;;;;2.68;100.00;102000.84;4911803;28;20050;-96
2024/02/01 02:28:26;;;;;;;12.25;3.63;;;;;;;2.65;100.00;101994.88;4918702;29;20035;-96
2024/02/01 02:31:21;;;;;;;12.77;3.70;;;;;;;2.61;100.00;102001.97;4938693;28;20066;-96
2024/02/01 02:34:02;;;;;;;10.65;3.08;;;;;;;2.57;100.00;101993.38;4964861;28;20046;-96
2024/02/01 02:36:55;;;;;;;9.43;3.20;;;;;;;2.56;100.00;102009.97;4942280;28;20050;-96
2024/02/01 02:40:13;;;;;;;12.82;3.47;;;;;;;2.45;100.00;102010.31;4905390;28;20039;-96
2024/02/01 02:43:32;;;;;;;11.52;3.42;;;;;;;2.39;100.00;102023.56;4926505;28;20050;-96
2024/02/01 02:47:05;;;;;;;;;;;;;;;;;;;;;
2024/02/01 02:58:37;;;;;;;15.68;3.85;;;;;;;2.41;100.00;102033.97;4933172;28;20056;-96
2024/02/01 03:36:42;;;;;;;;;;;;;;;;;;;;;
2024/02/01 04:40:03;;;;;;;;;;;;;;;2.03;100.00;102110.81;4796178;29;20058;-96
2024/02/01 04:59:47;;;;;;;15.60;2.03;;;;;;;2.01;100.00;102125.66;4903110;29;20587;-96
2024/02/01 05:03:25;;;;;;;;;;;;;;;;;;;;;
2024/02/01 05:06:00;;;;;;;17.75;2.72;;;;;;;1.96;100.00;102143.19;4920865;29;20048;-96
2024/02/01 05:08:36;;;;;;;15.50;2.45;;;;;;;1.98;100.00;102144.00;4853308;29;20044;-96
2024/02/01 05:11:11;;;;;;;23.25;3.67;;;;;;;2.05;100.00;102155.97;4851791;29;20535;-96
2024/02/01 05:13:40;;;;;;;21.13;3.20;;;;;;;1.92;100.00;102158.09;4870450;29;20727;-91
2024/02/01 05:16:06;;;;;;;22.27;3.00;;;;;;;1.89;100.00;102170.34;4926478;28;20094;-90
2024/02/01 05:18:32;;;;;;;13.73;2.63;;;;;;;1.81;100.00;102173.19;4906204;29;20043;-88
2024/02/01 05:20:57;;;;;;;15.10;3.10;;;;;;;1.77;100.00;102174.19;4940285;29;20390;-89
2024/02/01 05:23:23;;;;;;;20.25;2.90;;;;;;;1.72;100.00;102174.31;4940225;28;20031;-90
2024/02/01 05:25:49;;;;;;;20.83;3.05;;;;;;;1.78;100.00;102183.69;4909589;28;20023;-89
2024/02/01 05:28:15;;;;;;;16.02;2.72;;;;;;;1.79;100.00;102181.06;4926484;28;20039;-90
2024/02/01 05:30:44;;;;;;;20.25;2.95;;;;;;;1.83;100.00;102187.03;4936076;29;20035;-89
2024/02/01 05:33:10;;;;;;;15.00;2.80;;;;;;;1.81;100.00;102186.22;4907301;28;20035;-89
2024/02/01 05:35:36;;;;;;;13.25;2.45;;;;;;;1.85;100.00;102183.47;4922957;28;20026;-89
2024/02/01 05:38:03;;;;;;;27.33;3.53;;;;;;;1.84;100.00;102173.97;4909944;28;20038;-90
2024/02/01 05:40:29;;;;;;;17.83;2.85;;;;;;;1.88;100.00;102181.69;4947858;28;20042;-90
2024/02/01 05:42:55;;;;;;;20.27;3.05;;;;;;;1.90;100.00;102174.66;4918787;28;20186;-90
2024/02/01 05:45:21;;;;;;;19.25;3.88;;;;;;;1.92;100.00;102178.94;4929511;28;20589;-89
2024/02/01 05:47:47;;;;;;;18.35;3.13;;;;;;;1.94;100.00;102169.31;4941519;28;20026;-88
2024/02/01 05:50:17;;;;;;;22.85;3.80;;;;;;;1.98;100.00;102170.06;4939153;28;20027;-89
2024/02/01 05:52:43;;;;;;;14.15;2.40;;;;;;;1.99;100.00;102171.81;4907095;29;20091;-91
2024/02/01 05:55:10;;;;;;;23.92;3.60;;;;;;;2.03;100.00;102175.16;4925580;28;20078;-90
2024/02/01 05:57:37;;;;;;;16.60;3.13;;;;;;;2.03;100.00;102178.63;4927917;28;20130;-90
2024/02/01 06:00:06;;;;;;;19.55;2.30;;;;;;;2.08;100.00;102189.78;4952512;28;20114;-89
2024/02/01 06:02:33;;;;;;;12.40;2.15;;;;;;;2.08;100.00;102192.41;4963413;28;20049;-88
2024/02/01 06:04:59;;;;;;;15.55;2.55;;;;;;;2.12;100.00;102177.50;4972590;28;20560;-90
2024/02/01 06:07:27;;;;;;;18.38;3.25;;;;;;;2.13;100.00;102176.59;4933004;28;20185;-90
2024/02/01 06:09:53;;;;;;;14.07;3.20;;;;;;;2.15;100.00;102181.78;4958699;28;20038;-90
2024/02/01 06:12:19;;;;;;;15.68;2.65;;;;;;;2.13;100.00;102183.56;4937745;28;20042;-90
2024/02/01 06:14:45;;;;;;;13.63;2.33;;;;;;;2.13;100.00;102180.97;4957005;28;20538;-90
2024/02/01 06:17:11;;;;;;;18.73;2.65;;;;;;;2.15;100.00;102192.22;4955286;28;20086;-90
2024/02/01 06:19:37;;;;;;;13.73;2.47;;;;;;;2.12;100.00;102180.09;4937705;28;20038;-89
2024/02/01 06:22:05;;;;;;;14.05;2.15;;;;;;;2.12;100.00;102174.03;4941257;28;20035;-88
2024/02/01 06:24:33;;;;;;;15.05;3.08;;;;;;;2.07;100.00;102184.63;4955548;28;20041;-89
2024/02/01 06:26:59;;;;;;;10.88;2.65;;;;;;;1.93;100.00;102180.66;4932253;28;20513;-88
2024/02/01 06:29:25;;;;;;;18.70;2.45;;;;;;;1.83;100.00;102182.66;4946541;28;20046;-89
2024/02/01 06:31:50;;;;;;;10.32;2.60;;;;;;;1.63;100.00;102178.00;4940891;28;20128;-88
2024/02/01 06:34:18;;;;;;;16.13;3.38;;;;;;;1.47;100.00;102183.66;4957685;28;20116;-89
2024/02/01 06:36:51;;;;;;;8.57;1.90;;;;;;;1.36;100.00;102178.75;4954574;28;20078;-89
2024/02/01 06:39:37;;;;;;;10.13;2.35;;;;;;;1.24;100.00;102177.28;4962085;28;20038;-90
2024/02/01 06:45:28;;;;;;;12.48;2.97;;;;;;;1.38;100.00;102175.22;4880476;29;20196;-90
2024/02/01 06:48:08;;;;;;;12.30;2.55;;;;;;;1.52;100.00;102183.53;4947386;28;20501;-89
2024/02/01 06:50:46;;;;;;;11.88;3.08;;;;;;;1.52;100.00;102180.91;4960880;28;20048;-90
2024/02/01 06:53:23;;;;;;;16.30;2.83;;;;;;;1.56;100.00;102187.75;4939354;28;20081;-89
2024/02/01 06:56:06;;;;;;;10.60;2.63;;;;;;;1.52;100.00;102186.13;4926970;28;20035;-89
2024/02/01 06:58:39;;;;;;;18.45;3.47;;;;;;;1.36;100.00;102190.91;4931136;28;20075;-87
2024/02/01 07:02:14;;;;;;;13.70;2.35;;;;;;;1.26;100.00;102205.91;4942521;28;20264;-88
2024/02/01 07:04:15;;;;;;;22.55;3.20;;;;;;;1.21;100.00;102200.00;4954913;28;20116;-89
2024/02/01 07:07:04;;;;;;;21.05;3.30;;;;;;;1.28;100.00;102198.91;4949319;28;20051;-89
2024/02/01 07:09:36;;;;;;;17.35;2.92;;;;;;;1.34;100.00;102188.34;4972173;28;20066;-89
2024/02/01 07:12:10;;;;;;;17.00;3.20;;;;;;;1.44;100.00;102204.59;4952514;28;20121;-92
2024/02/01 07:14:39;;;;;;;10.23;2.67;;;;;;;1.54;100.00;102205.19;4952584;28;20513;-90
2024/02/01 07:19:53;;;;;;;13.98;3.22;;;;;;;1.63;100.00;102227.53;4954750;28;20516;-89
2024/02/01 07:25:33;;;;;;;15.98;2.47;;;;;;;1.64;100.00;102246.66;4870933;28;20049;-89
2024/02/01 07:58:10;;;;;;;16.63;2.95;;;;;;;1.95;100.00;102279.72;4962759;28;20034;-91
2024/02/01 08:00:45;;;;;;;14.02;2.47;;;;;;;1.95;100.00;102290.13;4961114;28;20049;-90
2024/02/01 08:03:22;;;;;;;7.10;2.55;;;;;;;2.04;100.00;102289.03;4940684;28;20042;-90
2024/02/01 08:08:37;;;;;;;9.45;2.17;;;;;;;2.12;100.00;102297.50;4954067;28;20070;-90
2024/02/01 08:11:04;;;;;;;17.58;2.53;;;;;;;2.12;100.00;102292.28;4955056;28;20041;-89
2024/02/01 08:13:31;;;;;;;15.10;3.10;;;;;;;2.08;100.00;102296.75;4932733;28;20046;-89
2024/02/01 08:15:57;;;;;;;17.55;3.58;;;;;;;1.95;100.00;102287.53;4936776;28;20473;-89
2024/02/01 08:18:38;;;;;;;12.40;2.65;;;;;;;1.91;100.00;102283.31;4925008;28;20038;-89
2024/02/01 08:21:04;;;;;;;12.82;2.78;;;;;;;1.89;100.00;102285.97;4937028;28;20497;-89
2024/02/01 08:23:30;;;;;;;19.05;2.90;;;;;;;1.79;100.00;102287.09;4937405;28;20062;-87
2024/02/01 08:26:02;;;;;;;9.95;2.78;;;;;;;1.70;100.00;102289.06;4969818;28;20023;-88
2024/02/01 08:28:32;;;;;;;11.90;3.03;;;;;;;1.65;100.00;102280.50;4937715;29;20114;-88
2024/02/01 08:31:07;;;;;;;13.43;3.20;;;;;;;1.58;100.00;102298.03;4931185;28;20035;-89
2024/02/01 08:33:37;;;;;;;11.40;3.13;;;;;;;1.56;100.00;102302.44;4959737;28;20027;-87
2024/02/01 08:36:03;;;;;;;12.80;3.45;;;;;;;1.56;100.00;102299.00;4951159;28;20059;-89
2024/02/01 08:38:32;;;;;;;25.92;4.38;;;;;;;1.50;100.00;102312.19;4936938;28;20046;-88
2024/02/01 08:40:58;;;;;;;17.30;3.55;;;;;;;1.48;100.00;102304.41;4936949;28;20042;-88
2024/02/01 08:43:23;;;;;;;23.73;4.38;;;;;;;1.52;100.00;102320.78;4924362;28;20117;-89
2024/02/01 08:45:49;;;;;;;25.77;4.40;;;;;;;1.55;100.00;102312.91;4923106;28;20039;-89
2024/02/01 08:48:15;;;;;;;11.93;3.97;;;;;;;1.60;100.00;102298.88;4929512;28;20046;-88
2024/02/01 08:50:43;;;;;;;16.63;3.53;;;;;;;1.65;100.00;102292.66;4956339;28;20058;-88
2024/02/01 08:53:10;;;;;;;17.02;3.63;;;;;;;1.65;100.00;102301.34;4933851;28;20038;-88
2024/02/01 08:55:36;;;;;;;16.98;3.53;;;;;;;1.69;100.00;102308.19;4940370;28;20073;-90
2024/02/01 08:58:08;;;;;;;17.20;4.03;;;;;;;1.77;100.00;102307.16;4946304;28;20043;-88
2024/02/01 09:00:38;;;;;;;15.30;5.40;;;;;;;1.89;100.00;102311.16;4926181;28;20043;-88
2024/02/01 09:03:29;;;;;;;23.80;6.05;;;;;;;1.98;100.00;102301.34;4929616;28;20042;-87
2024/02/01 09:06:20;;;;;;;20.30;7.55;;;;;;;2.01;100.00;102303.00;4941789;28;20130;-89
2024/02/01 09:09:28;;;;;;;23.08;6.43;;;;;;;2.08;100.00;102312.41;4921502;28;20053;-90
2024/02/01 09:11:52;;;;;;;17.75;6.28;;;;;;;2.11;100.00;102337.53;4955681;28;20034;-89
2024/02/01 09:14:17;;;;;;;16.85;6.20;;;;;;;2.12;100.00;102317.53;4923906;28;20042;-89
2024/02/01 09:16:44;;;;;;;15.18;5.30;;;;;;;2.21;100.00;102314.66;4942294;28;20038;-88
2024/02/01 09:19:14;;;;;;;17.63;4.30;;;;;;;2.28;100.00;102324.00;4943874;28;20031;-89
2024/02/01 09:21:40;;;;;;;17.27;5.50;;;;;;;2.33;100.00;102319.53;4932132;28;20047;-88
2024/02/01 09:24:06;;;;;;;23.60;10.98;;;;;;;2.42;100.00;102312.34;4957873;28;20392;-89
2024/02/01 09:26:32;;;;;;;16.58;3.28;;;;;;;2.45;100.00;102309.63;4941637;28;20035;-89
2024/02/01 09:28:58;;;;;;;17.52;2.90;;;;;;;2.42;100.00;102315.78;4932986;29;20087;-89
2024/02/01 09:31:23;;;;;;;14.10;3.42;;;;;;;2.47;100.00;102326.09;4971235;28;20033;-90
2024/02/01 09:33:50;;;;;;;18.27;6.78;;;;;;;2.50;100.00;102328.59;4957014;28;20026;-89
2024/02/01 09:36:16;;;;;;;16.98;4.30;;;;;;;2.48;100.00;102297.31;4969964;28;20425;-89
2024/02/01 09:38:42;;;;;;;11.50;3.20;;;;;;;2.49;100.00;102300.81;4938448;28;20401;-89
2024/02/01 09:41:17;;;;;;;12.40;4.07;;;;;;;2.50;100.00;102322.56;4955386;28;20039;-89
2024/02/01 09:43:52;;;;;;;11.60;3.83;;;;;;;2.52;100.00;102318.97;4939187;28;20042;-88
2024/02/01 09:46:19;;;;;;;11.60;3.17;;;;;;;2.50;100.00;102307.72;4950683;28;20864;-88
2024/02/01 09:48:46;;;;;;;18.85;3.95;;;;;;;2.48;100.00;102302.53;4922236;28;20042;-88
2024/02/01 09:51:17;;;;;;;30.05;10.00;;;;;;;2.42;100.00;102317.56;4922947;29;20062;-89
2024/02/01 09:53:47;;;;;;;19.10;5.15;;;;;;;2.48;100.00;102320.00;4945401;28;20031;-89
2024/02/01 09:56:13;;;;;;;12.90;3.53;;;;;;;2.48;100.00;102314.75;4957134;28;20066;-90
2024/02/01 09:58:41;;;;;;;12.18;3.30;;;;;;;2.50;100.00;102323.38;4939509;28;20557;-89
2024/02/01 10:01:09;;;;;;;11.55;2.40;;;;;;;2.54;100.00;102314.59;4946006;28;20073;-88
2024/02/01 10:03:35;;;;;;;11.25;2.38;;;;;;;2.56;100.00;102306.72;4939713;28;20524;-88
2024/02/01 10:06:04;;;;;;;10.20;2.38;;;;;;;2.58;100.00;102305.75;4953677;28;20046;-89
2024/02/01 10:08:33;;;;;;;12.98;3.40;;;;;;;2.65;100.00;102316.00;4975881;28;20039;-89
2024/02/01 10:11:03;;;;;;;15.88;4.40;;;;;;;2.72;100.00;102328.00;4955494;28;20180;-89
2024/02/01 10:13:32;;;;;;;13.77;3.13;;;;;;;2.69;100.00;102334.16;4938803;28;20030;-89
2024/02/01 10:15:59;;;;;;;14.45;4.57;;;;;;;2.68;100.00;102342.88;4938503;28;20031;-88
2024/02/01 10:18:25;;;;;;;16.33;5.20;;;;;;;2.68;100.00;102342.88;4956236;28;20424;-89
2024/02/01 10:21:28;;;;;;;15.05;4.22;;;;;;;2.78;100.00;102329.56;4955943;28;20038;-88
2024/02/01 10:24:04;;;;;;;20.23;4.65;;;;;;;2.79;100.00;102347.78;4936798;28;20054;-89
2024/02/01 10:26:30;;;;;;;16.55;4.00;;;;;;;2.79;100.00;102358.22;4940882;28;20026;-89
2024/02/01 10:28:56;;;;;;;24.15;4.65;;;;;;;2.81;100.00;102364.28;4947681;28;20038;-88
2024/02/01 10:31:22;;;;;;;19.42;4.78;;;;;;;2.89;100.00;102363.19;4948914;28;20062;-87
2024/02/01 10:33:49;;;;;;;17.92;4.38;;;;;;;2.93;100.00;102368.25;4948369;28;20401;-88
2024/02/01 10:36:21;;;;;;;23.40;3.90;;;;;;;3.04;100.00;102357.47;4955502;28;20037;-88
2024/02/01 10:38:55;;;;;;;14.13;3.60;;;;;;;3.11;100.00;102350.31;4947689;28;20057;-87
2024/02/01 10:41:28;;;;;;;13.88;3.00;;;;;;;3.19;100.00;102348.31;4970481;28;20046;-89
2024/02/01 10:43:56;;;;;;;15.77;3.75;;;;;;;3.33;100.00;102329.56;4963242;28;20384;-89
2024/02/01 10:46:29;;;;;;;31.05;12.75;;;;;;;3.44;100.00;102323.16;4944799;28;20026;-88
2024/02/01 10:49:04;;;;;;;23.52;5.15;;;;;;;3.52;100.00;102315.88;4925518;28;20391;-88
2024/02/01 10:51:31;;;;;;;19.85;5.25;;;;;;;3.51;100.00;102313.31;4972178;28;20098;-87
2024/02/01 10:53:58;;;;;;;13.82;4.50;;;;;;;3.58;100.00;102307.00;4961447;28;20037;-87
2024/02/01 10:56:29;;;;;;;28.55;4.88;;;;;;;3.58;100.00;102318.28;4975639;28;20852;-87
2024/02/01 10:59:07;;;;;;;27.42;6.97;;;;;;;3.61;100.00;102327.81;4951689;28;20050;-88
2024/02/01 11:01:33;;;;;;;66.85;38.20;;;;;;;3.62;100.00;102307.72;4935897;28;20093;-87
2024/02/01 11:04:01;;;;;;;36.67;18.42;;;;;;;3.65;100.00;102299.78;4944976;28;20125;-88
2024/02/01 11:06:48;;;;;;;145.18;82.97;;;;;;;3.71;100.00;102289.13;4940258;28;20037;-87
2024/02/01 11:09:22;;;;;;;50.50;20.17;;;;;;;3.73;100.00;102292.53;4935850;28;20049;-88
2024/02/01 11:11:49;;;;;;;27.05;4.72;;;;;;;3.72;100.00;102310.00;4973920;28;20497;-87
2024/02/01 11:14:19;;;;;;;22.42;5.53;;;;;;;3.81;100.00;102313.19;4940768;28;20039;-87
2024/02/01 11:16:48;;;;;;;23.25;4.68;;;;;;;3.87;100.00;102312.97;4928475;28;20456;-87
2024/02/01 11:19:17;;;;;;;22.73;4.05;;;;;;;3.95;100.00;102317.97;4941170;29;20405;-86
2024/02/01 11:21:48;;;;;;;20.17;5.00;;;;;;;4.12;100.00;102312.13;4980919;28;20073;-87
2024/02/01 11:24:20;;;;;;;55.05;22.02;;;;;;;4.21;100.00;102305.69;4943358;28;20498;-89
2024/02/01 11:26:47;;;;;;;65.07;26.67;;;;;;;4.26;100.00;102313.34;4971742;28;20034;-86
2024/02/01 11:29:19;;;;;;;70.32;34.80;;;;;;;4.39;100.00;102313.75;4969619;28;20026;-87
2024/02/01 11:31:45;;;;;;;54.75;27.02;;;;;;;4.42;100.00;102309.28;4945300;28;20406;-88
2024/02/01 11:34:12;;;;;;;59.95;23.15;;;;;;;4.53;100.00;102303.63;4951765;28;20049;-88
2024/02/01 11:36:39;;;;;;;79.72;43.75;;;;;;;4.62;100.00;102305.03;4959408;28;20085;-87
2024/02/01 11:39:09;;;;;;;50.10;24.70;;;;;;;4.75;100.00;102302.78;4969140;28;20442;-87
2024/02/01 11:41:36;;;;;;;31.33;8.75;;;;;;;4.92;100.00;102285.56;4957778;28;20129;-87
2024/02/01 11:44:04;;;;;;;41.17;15.70;;;;;;;5.12;100.00;102284.75;4963293;28;20026;-87
2024/02/01 11:46:30;;;;;;;27.92;7.20;;;;;;;5.34;100.00;102287.34;4945537;28;20371;-88
2024/02/01 11:48:56;;;;;;;29.15;6.53;;;;;;;5.52;100.00;102282.25;4930906;28;20043;-89
2024/02/01 11:51:25;;;;;;;26.33;5.80;;;;;;;5.67;100.00;102283.34;4949864;28;20456;-87
2024/02/01 11:53:52;;;;;;;27.20;6.80;;;;;;;5.78;100.00;102282.03;4940423;28;20046;-87
2024/02/01 11:56:22;;;;;;;25.83;5.03;;;;;;;5.94;100.00;102271.72;4954143;28;20185;-88
2024/02/01 12:03:13;;;;;;;21.60;4.60;;;;;;;6.16;100.00;102255.84;4958997;28;20039;-86
2024/02/01 12:05:49;;;;;;;29.10;3.70;;;;;;;6.24;100.00;102245.03;4940337;28;20041;-90
2024/02/01 12:08:19;;;;;;;33.92;4.20;;;;;;;6.16;100.00;102258.47;4929740;28;20039;-88
2024/02/01 12:10:45;;;;;;;34.55;4.38;;;;;;;6.09;100.00;102254.44;4961846;28;20043;-87
2024/02/01 12:13:17;;;;;;;26.65;4.45;;;;;;;6.13;100.00;102253.38;4954032;28;20030;-90
2024/02/01 12:15:45;;;;;;;19.48;3.65;;;;;;;6.17;100.00;102251.47;4961552;28;20026;-87
2024/02/01 12:18:12;;;;;;;31.25;3.22;;;;;;;6.10;100.00;102248.25;4948945;28;20185;-88
2024/02/01 12:20:42;;;;;;;26.15;3.55;;;;;;;6.10;100.00;102235.13;4939100;28;20751;-87
2024/02/01 12:23:09;;;;;;;25.80;3.35;;;;;;;6.11;100.00;102238.63;4961721;28;21201;-85
2024/02/01 12:25:35;;;;;;;20.38;3.90;;;;;;;6.11;100.00;102228.09;4976404;28;20034;-86
2024/02/01 12:28:02;;;;;;;21.73;3.90;;;;;;;6.08;100.00;102226.50;4941045;28;20030;-87
2024/02/01 12:30:31;;;;;;;29.95;3.22;;;;;;;6.11;100.00;102221.09;4926818;28;20041;-87
2024/02/01 12:32:57;;;;;;;30.40;3.20;;;;;;;6.22;100.00;102220.59;4939066;28;20054;-85
2024/02/01 12:35:23;;;;;;;26.95;8.85;;;;;;;6.38;100.00;102222.50;4971892;28;20366;-84
2024/02/01 12:37:49;;;;;;;29.27;7.15;;;;;;;6.48;100.00;102233.44;4974608;28;20023;-86
2024/02/01 12:40:16;;;;;;;36.28;14.70;;;;;;;6.58;100.00;102232.03;4973835;28;20042;-86
2024/02/01 12:42:45;;;;;;;28.40;8.50;;;;;;;6.63;100.00;102237.06;4963939;28;20030;-85
2024/02/01 12:45:20;;;;;;;58.20;26.60;;;;;;;6.66;100.00;102218.53;4943648;28;20074;-86
2024/02/01 12:47:51;;;;;;;46.90;18.58;;;;;;;6.78;100.00;102207.44;4943544;28;20030;-86
2024/02/01 12:50:18;;;;;;;51.83;17.25;;;;;;;6.87;100.00;102194.75;4972986;28;20058;-89
2024/02/01 12:52:46;;;;;;;61.60;23.00;;;;;;;6.97;100.00;102192.53;4956149;28;20126;-88
2024/02/01 12:55:16;;;;;;;58.67;20.60;;;;;;;7.03;100.00;102203.59;4939672;28;20053;-87
2024/02/01 12:57:46;;;;;;;51.15;15.05;;;;;;;7.05;100.00;102193.00;4957539;28;20027;-90
2024/02/01 13:00:12;;;;;;;50.05;15.93;;;;;;;6.99;100.00;102202.03;4954160;28;20485;-87
2024/02/01 13:02:39;;;;;;;69.05;31.63;;;;;;;7.02;100.00;102201.91;4923204;28;20110;-86
2024/02/01 13:05:09;;;;;;;97.95;49.17;;;;;;;7.05;100.00;102196.47;4910184;28;20583;-84
2024/02/01 13:07:36;;;;;;;34.95;13.98;;;;;;;7.15;100.00;102198.66;4933045;28;20168;-84
2024/02/01 13:10:07;;;;;;;39.42;12.48;;;;;;;7.23;100.00;102178.03;4952676;28;20171;-85
2024/02/01 13:12:34;;;;;;;33.15;6.75;;;;;;;7.20;100.00;102178.19;4941872;28;20046;-87
2024/02/01 13:15:01;;;;;;;34.72;10.65;;;;;;;7.26;100.00;102177.03;4937257;28;20031;-88
2024/02/01 13:17:28;;;;;;;26.35;11.43;;;;;;;7.32;100.00;102179.34;4907428;29;20126;-85
2024/02/01 13:19:55;;;;;;;23.23;4.53;;;;;;;7.36;100.00;102167.72;4924730;28;20401;-89
2024/02/01 13:22:31;;;;;;;26.65;4.65;;;;;;;7.37;100.00;102169.44;4911249;28;20054;-85
2024/02/01 13:24:59;;;;;;;17.90;3.00;;;;;;;7.27;100.00;102166.44;4915232;29;20126;-89
2024/02/01 13:27:26;;;;;;;22.70;3.20;;;;;;;7.22;100.00;102151.81;4918808;29;20045;-89
2024/02/01 13:29:52;;;;;;;18.40;2.78;;;;;;;7.23;100.00;102157.00;4922006;29;20386;-90
2024/02/01 13:32:21;;;;;;;22.52;3.13;;;;;;;7.29;100.00;102140.91;4936366;28;20043;-90
2024/02/01 13:34:46;;;;;;;26.83;3.65;;;;;;;7.30;100.00;102134.72;4945450;29;20482;-88
2024/02/01 13:37:13;;;;;;;21.02;3.15;;;;;;;7.36;100.00;102128.28;4906788;28;20043;-90
2024/02/01 13:39:45;;;;;;;20.45;3.67;;;;;;;7.45;100.00;102127.78;4924228;28;20295;-89
2024/02/01 13:46:13;;;;;;;25.65;2.70;;;;;;;7.53;100.00;102142.31;4910266;29;20032;-88
2024/02/01 13:48:39;;;;;;;19.80;3.10;;;;;;;7.62;100.00;102138.34;4923106;28;20046;-85
2024/02/01 13:51:08;;;;;;;17.58;3.05;;;;;;;7.73;100.00;102128.09;4928718;29;20090;-88
2024/02/01 13:53:35;;;;;;;22.05;3.90;;;;;;;7.85;100.00;102128.34;4934590;28;20074;-86
2024/02/01 13:56:01;;;;;;;19.60;3.20;;;;;;;7.88;100.00;102126.41;4904615;28;20094;-86
2024/02/01 13:58:27;;;;;;;14.38;2.80;;;;;;;7.99;100.00;102124.94;4954696;28;20027;-85
2024/02/01 14:00:52;;;;;;;20.20;3.13;;;;;;;8.06;100.00;102116.63;4950763;28;20031;-85
2024/02/01 14:03:18;;;;;;;18.98;3.60;;;;;;;8.17;100.00;102115.19;4927020;28;20140;-88
2024/02/01 14:05:44;;;;;;;17.67;2.90;;;;;;;8.15;100.00;102104.72;4920108;28;20070;-87
2024/02/01 14:08:10;;;;;;;17.30;3.35;;;;;;;8.12;100.00;102106.69;4948407;28;20038;-86
2024/02/01 14:10:36;;;;;;;20.73;3.13;;;;;;;8.07;100.00;102107.75;4940795;28;20047;-87
2024/02/01 14:13:02;;;;;;;15.60;3.28;;;;;;;8.11;100.00;102102.31;4921640;28;20062;-86
2024/02/01 14:15:27;;;;;;;22.67;4.03;;;;;;;8.05;100.00;102101.75;4905868;28;20844;-90
2024/02/01 14:17:53;;;;;;;20.60;3.70;;;;;;;8.06;100.00;102097.31;4914619;28;20102;-85
2024/02/01 14:20:19;;;;;;;16.85;2.78;;;;;;;8.05;100.00;102087.72;4955049;28;20031;-88
2024/02/01 14:22:45;;;;;;;28.27;3.90;;;;;;;8.03;100.00;102095.72;4902236;28;20135;-87
2024/02/01 14:25:13;;;;;;;35.70;16.83;;;;;;;8.03;100.00;102097.50;4922406;28;20458;-85
2024/02/01 14:27:40;;;;;;;36.67;7.97;;;;;;;8.09;100.00;102102.41;4932763;28;20043;-85
2024/02/01 14:30:10;;;;;;;28.13;8.60;;;;;;;8.18;100.00;102094.00;4942049;28;20038;-86
2024/02/01 14:32:40;;;;;;;36.22;18.50;;;;;;;8.20;100.00;102086.03;4916282;28;20043;-84
2024/02/01 14:35:13;;;;;;;29.42;9.57;;;;;;;8.16;100.00;102095.88;4937224;28;20043;-87
2024/02/01 14:37:41;;;;;;;29.85;11.35;;;;;;;8.17;100.00;102089.66;4940921;28;20039;-86
2024/02/01 14:43:49;;;;;;;21.98;5.40;;;;;;;8.12;100.00;102080.34;4940431;28;20039;-84
2024/02/01 14:46:16;;;;;;;20.67;7.60;;;;;;;8.16;100.00;102079.22;4915767;28;20043;-86
2024/02/01 14:48:48;;;;;;;28.42;7.63;;;;;;;8.15;100.00;102069.63;4940597;28;20031;-87
2024/02/01 14:51:49;;;;;;;21.85;5.57;;;;;;;8.23;100.00;102067.41;4923214;28;20541;-90
2024/02/01 14:54:15;;;;;;;16.85;5.57;;;;;;;8.13;100.00;102074.13;4906978;28;20062;-87
2024/02/01 14:57:24;;;;;;;24.25;7.60;;;;;;;8.19;100.00;102069.38;4903544;28;20175;-88
2024/02/01 14:59:50;;;;;;;26.13;6.63;;;;;;;8.18;100.00;102067.66;4903149;28;20043;-85
2024/02/01 15:02:30;;;;;;;20.38;4.28;;;;;;;8.19;100.00;102044.78;4933132;28;20093;-86
2024/02/01 15:04:56;;;;;;;30.63;9.02;;;;;;;8.20;100.00;102043.88;4932036;28;20449;-86
2024/02/01 15:07:22;;;;;;;19.80;3.30;;;;;;;8.18;100.00;102041.34;4936699;28;20031;-87
2024/02/01 15:10:30;;;;;;;27.33;4.18;;;;;;;8.22;100.00;102034.06;4939285;28;20397;-88
2024/02/01 15:13:03;;;;;;;24.85;4.45;;;;;;;8.21;100.00;102045.56;4923312;28;20042;-85
2024/02/01 15:15:33;;;;;;;26.30;5.07;;;;;;;8.17;100.00;102036.97;4954867;28;20039;-86
2024/02/01 15:17:59;;;;;;;21.02;4.35;;;;;;;8.21;100.00;102042.94;4960934;28;20101;-89
2024/02/01 15:20:33;;;;;;;27.30;4.32;;;;;;;8.21;100.00;102031.53;4942426;28;20126;-86
2024/02/01 15:24:14;;;;;;;25.90;4.43;;;;;;;8.27;100.00;102029.41;4940351;28;20106;-88
2024/02/01 15:26:41;;;;;;;22.38;4.53;;;;;;;8.28;100.00;102027.63;4937089;28;20720;-85
2024/02/01 15:29:12;;;;;;;27.15;4.60;;;;;;;8.27;100.00;102024.13;4957536;28;20647;-86
2024/02/01 15:32:22;;;;;;;37.95;13.70;;;;;;;8.34;100.00;102024.63;4936105;28;20170;-86
2024/02/01 15:34:49;;;;;;;58.97;32.10;;;;;;;8.29;100.00;102024.03;4942147;28;20121;-85
2024/02/01 15:37:20;;;;;;;82.45;42.03;;;;;;;8.32;100.00;102032.63;4963923;28;20441;-86
2024/02/01 15:39:52;;;;;;;94.50;39.67;;;;;;;8.31;100.00;102025.63;4955154;28;20038;-86
2024/02/01 15:42:18;;;;;;;77.25;28.58;;;;;;;8.33;100.00;102025.53;4927814;28;20049;-85
2024/02/01 15:45:02;;;;;;;94.97;37.33;;;;;;;8.37;100.00;102026.22;4946613;28;20042;-86
2024/02/01 15:47:34;;;;;;;53.60;24.15;;;;;;;8.35;100.00;102021.03;4971178;28;20030;-86
2024/02/01 15:50:00;;;;;;;47.63;18.50;;;;;;;8.36;100.00;102028.00;4935632;28;20093;-85
2024/02/01 15:52:50;;;;;;;44.65;21.88;;;;;;;8.38;100.00;102009.47;4925847;28;20057;-85
2024/02/01 15:55:15;;;;;;;44.50;16.88;;;;;;;8.37;100.00;102015.69;4943925;28;20038;-84
2024/02/01 15:57:41;;;;;;;44.97;20.38;;;;;;;8.39;100.00;102009.38;4946472;28;20039;-86
2024/02/01 16:00:08;;;;;;;26.17;9.60;;;;;;;8.43;100.00;102018.81;4933800;28;20054;-86
2024/02/01 16:02:40;;;;;;;37.60;13.02;;;;;;;8.48;100.00;102018.53;4970882;28;20050;-86
2024/02/01 16:05:07;;;;;;;29.70;11.73;;;;;;;8.48;100.00;102018.53;4939369;28;20073;-85
2024/02/01 16:07:39;;;;;;;36.63;17.90;;;;;;;8.52;100.00;102021.84;4934033;28;20030;-85
2024/02/01 16:10:14;;;;;;;31.15;9.30;;;;;;;8.53;100.00;102007.72;4955193;28;20754;-85
2024/02/01 16:12:41;;;;;;;46.25;18.55;;;;;;;8.51;100.00;102001.69;4918525;28;20045;-84
2024/02/01 16:15:56;;;;;;;31.38;10.52;;;;;;;8.56;100.00;102010.19;4955331;28;20030;-86
2024/02/01 16:18:48;;;;;;;32.60;12.98;;;;;;;8.52;100.00;102004.22;4934259;28;20081;-86
2024/02/01 16:21:20;;;;;;;36.55;14.35;;;;;;;8.53;100.00;102002.44;4935151;28;20475;-84
2024/02/01 16:24:00;;;;;;;24.10;6.28;;;;;;;8.48;100.00;101996.59;4967394;28;20042;-86
2024/02/01 16:26:31;;;;;;;29.90;9.35;;;;;;;8.48;100.00;101992.19;4910933;28;20050;-88
2024/02/01 16:29:16;;;;;;;61.97;24.58;;;;;;;8.47;100.00;101985.22;4917845;28;20047;-86
2024/02/01 16:31:45;;;;;;;48.38;18.45;;;;;;;8.47;100.00;101984.38;4954959;28;20046;-85
2024/02/01 16:34:13;;;;;;;25.83;9.82;;;;;;;8.50;100.00;101985.03;4931991;28;20226;-86
2024/02/01 16:36:45;;;;;;;41.00;19.33;;;;;;;8.48;100.00;101988.69;4969138;28;20034;-85